sensor_id;sensor_type;location;lat;lon;timestamp;pressure;altitude;pressure_sealevel;temperature;humidity
35908;BME280;22003;50.320;8.054;2023-04-08T04:00:30;100230.84;;;3.07;100.00
35908;BME280;22003;50.320;8.054;2023-04-08T04:02:55;100227.38;;;3.07;100.00
35908;BME280;22003;50.320;8.054;2023-04-08T04:05:20;100241.16;;;3.10;100.00
35908;BME280;22003;50.320;8.054;2023-04-08T04:07:46;100220.78;;;2.97;100.00
35908;BME280;22003;50.320;8.054;2023-04-08T04:10:11;100214.03;;;2.91;100.00
35908;BME280;22003;50.320;8.054;2023-04-08T04:12:36;100243.50;;;2.96;100.00
35908;BME280;22003;50.320;8.054;2023-04-08T04:15:02;100219.31;;;2.89;100.00
35908;BME280;22003;50.320;8.054;2023-04-08T04:17:27;100210.38;;;2.95;100.00
35908;BME280;22003;50.320;8.054;2023-04-08T04:19:53;100188.06;;;2.63;100.00
35908;BME280;22003;50.320;8.054;2023-04-08T04:22:18;100216.69;;;2.68;100.00
35908;BME280;22003;50.320;8.054;2023-04-08T04:24:47;100172.59;;;2.35;100.00
35908;BME280;22003;50.320;8.054;2023-04-08T04:27:13;100170.47;;;2.45;100.00
35908;BME280;22003;50.320;8.054;2023-04-08T04:29:39;100236.13;;;2.60;100.00
35908;BME280;22003;50.320;8.054;2023-04-08T04:32:04;100242.25;;;2.59;100.00
35908;BME280;22003;50.320;8.054;2023-04-08T04:34:30;100193.13;;;2.21;100.00
35908;BME280;22003;50.320;8.054;2023-04-08T04:36:55;100247.88;;;2.49;100.00
35908;BME280;22003;50.320;8.054;2023-04-08T04:39:21;100236.72;;;2.45;100.00
35908;BME280;22003;50.320;8.054;2023-04-08T04:41:46;100252.03;;;2.54;100.00
35908;BME280;22003;50.320;8.054;2023-04-08T04:44:13;100248.59;;;2.99;100.00
35908;BME280;22003;50.320;8.054;2023-04-08T04:46:38;100248.25;;;3.08;100.00
35908;BME280;22003;50.320;8.054;2023-04-08T04:49:03;100246.75;;;2.79;100.00
35908;BME280;22003;50.320;8.054;2023-04-08T04:51:30;100251.00;;;2.82;100.00
35908;BME280;22003;50.320;8.054;2023-04-08T04:53:56;100241.28;;;2.85;100.00
35908;BME280;22003;50.320;8.054;2023-04-08T04:56:21;100247.75;;;2.99;100.00
35908;BME280;22003;50.320;8.054;2023-04-08T04:58:46;100247.94;;;3.16;100.00
35908;BME280;22003;50.320;8.054;2023-04-08T05:01:11;100246.78;;;3.23;100.00
35908;BME280;22003;50.320;8.054;2023-04-08T05:03:37;100234.72;;;3.19;100.00
35908;BME280;22003;50.320;8.054;2023-04-08T05:06:02;100236.25;;;3.25;100.00
35908;BME280;22003;50.320;8.054;2023-04-08T05:08:28;100177.69;;;2.83;100.00
35908;BME280;22003;50.320;8.054;2023-04-08T05:10:53;100252.50;;;3.33;100.00
35908;BME280;22003;50.320;8.054;2023-04-08T05:13:20;100251.47;;;3.37;100.00
35908;BME280;22003;50.320;8.054;2023-04-08T05:15:45;100251.22;;;3.43;100.00
35908;BME280;22003;50.320;8.054;2023-04-08T05:18:11;100253.31;;;3.55;100.00
35908;BME280;22003;50.320;8.054;2023-04-08T05:20:36;100207.56;;;3.00;100.00
35908;BME280;22003;50.320;8.054;2023-04-08T05:23:01;100279.06;;;3.24;100.00
35908;BME280;22003;50.320;8.054;2023-04-08T05:25:26;100265.84;;;3.27;100.00
35908;BME280;22003;50.320;8.054;2023-04-08T05:27:52;100270.19;;;3.28;100.00
35908;BME280;22003;50.320;8.054;2023-04-08T05:30:17;100270.41;;;3.22;100.00
35908;BME280;22003;50.320;8.054;2023-04-08T05:32:43;100266.41;;;3.35;100.00
35908;BME280;22003;50.320;8.054;2023-04-08T05:35:08;100269.28;;;3.49;100.00
35908;BME280;22003;50.320;8.054;2023-04-08T05:37:34;100268.78;;;3.41;100.00
35908;BME280;22003;50.320;8.054;2023-04-08T05:39:59;100265.38;;;3.59;100.00
35908;BME280;22003;50.320;8.054;2023-04-08T05:42:24;100269.19;;;3.52;100.00
35908;BME280;22003;50.320;8.054;2023-04-08T05:44:51;100198.06;;;3.19;100.00
35908;BME280;22003;50.320;8.054;2023-04-08T05:47:16;100264.25;;;3.66;100.00
35908;BME280;22003;50.320;8.054;2023-04-08T05:49:41;100268.44;;;3.91;100.00
35908;BME280;22003;50.320;8.054;2023-04-08T05:52:06;100258.84;;;3.69;100.00
35908;BME280;22003;50.320;8.054;2023-04-08T05:54:32;100175.25;;;3.23;100.00
35908;BME280;22003;50.320;8.054;2023-04-08T05:56:57;100236.75;;;3.34;100.00
35908;BME280;22003;50.320;8.054;2023-04-08T05:59:22;100269.94;;;3.56;100.00
35908;BME280;22003;50.320;8.054;2023-04-08T06:01:47;100295.97;;;3.81;100.00
35908;BME280;22003;50.320;8.054;2023-04-08T06:04:13;100295.00;;;3.83;100.00
35908;BME280;22003;50.320;8.054;2023-04-08T06:06:38;100285.22;;;3.87;100.00
35908;BME280;22003;50.320;8.054;2023-04-08T06:09:04;100293.81;;;3.90;100.00
35908;BME280;22003;50.320;8.054;2023-04-08T06:11:30;100294.63;;;3.70;100.00
35908;BME280;22003;50.320;8.054;2023-04-08T06:13:55;100289.41;;;3.91;100.00
35908;BME280;22003;50.320;8.054;2023-04-08T06:16:20;100294.91;;;4.05;100.00
35908;BME280;22003;50.320;8.054;2023-04-08T06:18:45;100284.72;;;4.19;100.00
35908;BME280;22003;50.320;8.054;2023-04-08T06:21:11;100291.81;;;4.17;100.00
35908;BME280;22003;50.320;8.054;2023-04-08T06:23:36;100285.94;;;4.11;100.00
35908;BME280;22003;50.320;8.054;2023-04-08T06:26:01;100240.25;;;3.76;100.00
35908;BME280;22003;50.320;8.054;2023-04-08T06:28:30;100293.81;;;4.31;100.00
35908;BME280;22003;50.320;8.054;2023-04-08T06:30:56;100250.19;;;3.89;100.00
35908;BME280;22003;50.320;8.054;2023-04-08T06:33:22;100301.34;;;3.98;100.00
35908;BME280;22003;50.320;8.054;2023-04-08T06:35:47;100302.56;;;4.11;100.00
35908;BME280;22003;50.320;8.054;2023-04-08T06:38:12;100278.06;;;3.70;100.00
35908;BME280;22003;50.320;8.054;2023-04-08T06:40:40;100247.88;;;3.61;100.00
35908;BME280;22003;50.320;8.054;2023-04-08T06:43:06;100303.59;;;4.07;100.00
35908;BME280;22003;50.320;8.054;2023-04-08T06:45:32;100307.38;;;3.80;100.00
35908;BME280;22003;50.320;8.054;2023-04-08T06:47:57;100316.94;;;4.21;100.00
35908;BME280;22003;50.320;8.054;2023-04-08T06:50:22;100309.56;;;4.31;100.00
35908;BME280;22003;50.320;8.054;2023-04-08T06:52:47;100311.44;;;4.48;100.00
35908;BME280;22003;50.320;8.054;2023-04-08T06:55:13;100310.66;;;4.46;100.00
35908;BME280;22003;50.320;8.054;2023-04-08T06:57:38;100317.97;;;4.79;100.00
35908;BME280;22003;50.320;8.054;2023-04-08T07:00:04;100312.88;;;4.94;100.00
35908;BME280;22003;50.320;8.054;2023-04-08T07:02:29;100311.59;;;5.22;100.00
35908;BME280;22003;50.320;8.054;2023-04-08T07:04:54;100313.19;;;5.43;100.00
35908;BME280;22003;50.320;8.054;2023-04-08T07:07:20;100286.53;;;5.34;100.00
35908;BME280;22003;50.320;8.054;2023-04-08T07:09:45;100327.72;;;5.69;100.00
35908;BME280;22003;50.320;8.054;2023-04-08T07:12:13;100327.09;;;5.81;100.00
35908;BME280;22003;50.320;8.054;2023-04-08T07:14:38;100340.94;;;6.21;100.00
35908;BME280;22003;50.320;8.054;2023-04-08T07:17:04;100344.25;;;6.42;100.00
35908;BME280;22003;50.320;8.054;2023-04-08T07:19:30;100342.31;;;6.46;100.00
35908;BME280;22003;50.320;8.054;2023-04-08T07:21:55;100342.78;;;6.54;100.00
35908;BME280;22003;50.320;8.054;2023-04-08T07:24:22;100261.84;;;5.90;100.00
35908;BME280;22003;50.320;8.054;2023-04-08T07:26:47;100344.69;;;6.68;100.00
35908;BME280;22003;50.320;8.054;2023-04-08T07:29:12;100350.00;;;6.83;100.00
35908;BME280;22003;50.320;8.054;2023-04-08T07:31:37;100344.38;;;7.07;100.00
35908;BME280;22003;50.320;8.054;2023-04-08T07:34:03;100347.19;;;7.20;100.00
35908;BME280;22003;50.320;8.054;2023-04-08T07:36:28;100339.53;;;7.31;100.00
35908;BME280;22003;50.320;8.054;2023-04-08T07:38:53;100343.09;;;7.30;100.00
35908;BME280;22003;50.320;8.054;2023-04-08T07:41:19;100281.22;;;7.05;100.00
35908;BME280;22003;50.320;8.054;2023-04-08T07:43:45;100348.28;;;7.63;100.00
35908;BME280;22003;50.320;8.054;2023-04-08T07:46:10;100345.50;;;7.50;100.00
35908;BME280;22003;50.320;8.054;2023-04-08T07:48:36;100315.59;;;7.65;100.00
35908;BME280;22003;50.320;8.054;2023-04-08T07:51:07;100351.69;;;7.18;100.00
35908;BME280;22003;50.320;8.054;2023-04-08T07:53:32;100340.13;;;7.20;100.00
35908;BME280;22003;50.320;8.054;2023-04-08T07:55:58;100345.31;;;7.06;100.00
35908;BME280;22003;50.320;8.054;2023-04-08T07:58:24;100360.75;;;6.96;100.00
35908;BME280;22003;50.320;8.054;2023-04-08T08:00:50;100357.44;;;6.75;100.00
35908;BME280;22003;50.320;8.054;2023-04-08T08:03:15;100354.63;;;6.96;100.00
35908;BME280;22003;50.320;8.054;2023-04-08T08:05:41;100351.72;;;6.84;100.00
35908;BME280;22003;50.320;8.054;2023-04-08T08:08:06;100354.72;;;6.61;100.00
35908;BME280;22003;50.320;8.054;2023-04-08T08:10:32;100362.75;;;6.58;100.00
35908;BME280;22003;50.320;8.054;2023-04-08T08:12:57;100368.34;;;6.52;100.00
35908;BME280;22003;50.320;8.054;2023-04-08T08:15:22;100370.78;;;6.55;100.00
35908;BME280;22003;50.320;8.054;2023-04-08T08:17:47;100361.75;;;6.94;100.00
35908;BME280;22003;50.320;8.054;2023-04-08T08:20:13;100359.31;;;6.73;100.00
35908;BME280;22003;50.320;8.054;2023-04-08T08:22:38;100357.06;;;6.66;100.00
35908;BME280;22003;50.320;8.054;2023-04-08T08:25:04;100373.56;;;6.69;100.00
35908;BME280;22003;50.320;8.054;2023-04-08T08:27:29;100373.25;;;6.75;100.00
35908;BME280;22003;50.320;8.054;2023-04-08T08:29:54;100233.31;;;5.99;100.00
35908;BME280;22003;50.320;8.054;2023-04-08T08:32:21;100370.66;;;6.91;100.00
35908;BME280;22003;50.320;8.054;2023-04-08T08:34:46;100367.41;;;7.19;100.00
35908;BME280;22003;50.320;8.054;2023-04-08T08:37:11;100378.66;;;7.38;100.00
35908;BME280;22003;50.320;8.054;2023-04-08T08:39:36;100339.03;;;7.40;100.00
35908;BME280;22003;50.320;8.054;2023-04-08T08:42:02;100389.63;;;7.78;100.00
35908;BME280;22003;50.320;8.054;2023-04-08T08:44:28;100405.38;;;7.96;100.00
35908;BME280;22003;50.320;8.054;2023-04-08T08:46:54;100388.00;;;7.91;100.00
35908;BME280;22003;50.320;8.054;2023-04-08T08:49:19;100400.69;;;7.69;100.00
35908;BME280;22003;50.320;8.054;2023-04-08T08:51:45;100389.25;;;7.21;100.00
35908;BME280;22003;50.320;8.054;2023-04-08T08:54:11;100399.19;;;7.16;100.00
35908;BME280;22003;50.320;8.054;2023-04-08T08:56:37;100389.44;;;7.65;100.00
35908;BME280;22003;50.320;8.054;2023-04-08T08:59:02;100395.50;;;7.67;100.00
35908;BME280;22003;50.320;8.054;2023-04-08T09:01:38;100405.53;;;7.92;100.00
35908;BME280;22003;50.320;8.054;2023-04-08T09:04:15;100400.34;;;7.75;100.00
35908;BME280;22003;50.320;8.054;2023-04-08T09:06:43;100395.94;;;8.37;100.00
35908;BME280;22003;50.320;8.054;2023-04-08T09:09:08;100402.97;;;8.07;100.00
35908;BME280;22003;50.320;8.054;2023-04-08T09:11:35;100410.94;;;8.81;100.00
35908;BME280;22003;50.320;8.054;2023-04-08T09:14:02;100349.31;;;8.22;100.00
35908;BME280;22003;50.320;8.054;2023-04-08T09:16:29;100352.69;;;8.24;100.00
35908;BME280;22003;50.320;8.054;2023-04-08T09:19:07;100414.53;;;9.09;100.00
35908;BME280;22003;50.320;8.054;2023-04-08T09:21:32;100409.50;;;8.76;100.00
35908;BME280;22003;50.320;8.054;2023-04-08T09:23:57;100402.06;;;8.68;100.00
35908;BME280;22003;50.320;8.054;2023-04-08T09:26:23;100379.44;;;8.18;100.00
35908;BME280;22003;50.320;8.054;2023-04-08T09:29:06;100355.19;;;8.11;100.00
35908;BME280;22003;50.320;8.054;2023-04-08T09:31:37;100419.31;;;8.43;100.00
35908;BME280;22003;50.320;8.054;2023-04-08T09:34:15;100418.28;;;8.62;100.00
35908;BME280;22003;50.320;8.054;2023-04-08T09:36:42;100332.56;;;8.37;100.00
35908;BME280;22003;50.320;8.054;2023-04-08T09:39:12;100347.03;;;8.46;100.00
35908;BME280;22003;50.320;8.054;2023-04-08T09:41:38;100300.44;;;8.59;99.64
35908;BME280;22003;50.320;8.054;2023-04-08T09:44:06;100401.41;;;8.79;100.00
35908;BME280;22003;50.320;8.054;2023-04-08T09:46:38;100423.00;;;8.71;100.00
35908;BME280;22003;50.320;8.054;2023-04-08T09:49:26;100424.06;;;8.97;100.00
35908;BME280;22003;50.320;8.054;2023-04-08T09:52:26;100422.00;;;9.02;100.00
35908;BME280;22003;50.320;8.054;2023-04-08T09:54:58;100403.03;;;9.10;100.00
35908;BME280;22003;50.320;8.054;2023-04-08T10:00:15;100417.59;;;9.17;100.00
35908;BME280;22003;50.320;8.054;2023-04-08T10:05:23;100420.81;;;9.22;100.00
35908;BME280;22003;50.320;8.054;2023-04-08T10:07:50;100427.03;;;9.07;100.00
35908;BME280;22003;50.320;8.054;2023-04-08T10:10:15;100428.38;;;8.69;100.00
35908;BME280;22003;50.320;8.054;2023-04-08T10:12:41;100428.88;;;9.05;100.00
35908;BME280;22003;50.320;8.054;2023-04-08T10:15:30;100433.44;;;8.88;100.00
35908;BME280;22003;50.320;8.054;2023-04-08T10:23:06;100373.38;;;8.62;100.00
35908;BME280;22003;50.320;8.054;2023-04-08T10:25:36;100426.84;;;8.65;100.00
35908;BME280;22003;50.320;8.054;2023-04-08T10:30:48;100411.56;;;8.70;100.00
35908;BME280;22003;50.320;8.054;2023-04-08T10:33:34;100424.31;;;8.64;100.00
35908;BME280;22003;50.320;8.054;2023-04-08T10:38:30;100423.16;;;9.12;100.00
35908;BME280;22003;50.320;8.054;2023-04-08T10:40:56;100394.34;;;8.79;98.88
35908;BME280;22003;50.320;8.054;2023-04-08T10:43:22;100424.19;;;9.24;99.07
35908;BME280;22003;50.320;8.054;2023-04-08T10:45:48;100414.72;;;9.48;97.77
35908;BME280;22003;50.320;8.054;2023-04-08T10:48:22;100416.50;;;9.48;96.56
35908;BME280;22003;50.320;8.054;2023-04-08T10:50:59;100370.94;;;9.02;92.21
35908;BME280;22003;50.320;8.054;2023-04-08T10:53:29;100422.75;;;9.33;94.34
35908;BME280;22003;50.320;8.054;2023-04-08T10:56:11;100415.88;;;9.16;91.69
35908;BME280;22003;50.320;8.054;2023-04-08T10:58:52;100409.63;;;9.31;91.10
35908;BME280;22003;50.320;8.054;2023-04-08T11:01:19;100414.31;;;9.69;91.24
35908;BME280;22003;50.320;8.054;2023-04-08T11:03:44;100409.81;;;9.57;89.35
35908;BME280;22003;50.320;8.054;2023-04-08T11:06:10;100392.81;;;9.61;90.81
35908;BME280;22003;50.320;8.054;2023-04-08T11:08:36;100382.63;;;10.09;90.72
35908;BME280;22003;50.320;8.054;2023-04-08T11:11:03;100407.84;;;10.41;87.58
35908;BME280;22003;50.320;8.054;2023-04-08T11:13:33;100408.13;;;11.02;84.42
35908;BME280;22003;50.320;8.054;2023-04-08T11:16:00;100417.31;;;10.45;88.31
35908;BME280;22003;50.320;8.054;2023-04-08T11:18:26;100385.69;;;10.29;85.30
35908;BME280;22003;50.320;8.054;2023-04-08T11:20:52;100407.81;;;11.81;80.79
35908;BME280;22003;50.320;8.054;2023-04-08T11:23:18;100406.41;;;11.26;84.90
35908;BME280;22003;50.320;8.054;2023-04-08T11:25:44;100413.81;;;10.57;85.00
35908;BME280;22003;50.320;8.054;2023-04-08T11:28:14;100412.69;;;10.74;83.80
35908;BME280;22003;50.320;8.054;2023-04-08T11:30:40;100417.72;;;10.52;86.12
35908;BME280;22003;50.320;8.054;2023-04-08T11:33:08;100340.63;;;10.17;82.72
35908;BME280;22003;50.320;8.054;2023-04-08T11:35:33;100411.19;;;10.70;82.91
35908;BME280;22003;50.320;8.054;2023-04-08T11:37:59;100406.00;;;10.69;85.00
35908;BME280;22003;50.320;8.054;2023-04-08T11:40:24;100416.94;;;10.10;85.74
35908;BME280;22003;50.320;8.054;2023-04-08T11:42:51;100395.72;;;9.97;84.74
35908;BME280;22003;50.320;8.054;2023-04-08T11:45:18;100395.31;;;10.30;82.49
35908;BME280;22003;50.320;8.054;2023-04-08T11:47:45;100373.59;;;10.25;84.12
35908;BME280;22003;50.320;8.054;2023-04-08T11:50:11;100410.78;;;10.24;85.61
35908;BME280;22003;50.320;8.054;2023-04-08T11:52:44;100408.41;;;10.19;85.03
35908;BME280;22003;50.320;8.054;2023-04-08T11:55:12;100410.00;;;10.22;85.23
35908;BME280;22003;50.320;8.054;2023-04-08T11:57:45;100366.28;;;9.75;80.21
35908;BME280;22003;50.320;8.054;2023-04-08T12:00:11;100395.78;;;9.83;81.46
35908;BME280;22003;50.320;8.054;2023-04-08T12:02:36;100408.41;;;10.19;85.00
35908;BME280;22003;50.320;8.054;2023-04-08T12:05:02;100405.91;;;10.03;80.79
35908;BME280;22003;50.320;8.054;2023-04-08T12:07:27;100403.22;;;10.18;81.94
35908;BME280;22003;50.320;8.054;2023-04-08T12:09:52;100349.44;;;10.30;79.47
35908;BME280;22003;50.320;8.054;2023-04-08T12:12:18;100391.41;;;10.89;81.47
35908;BME280;22003;50.320;8.054;2023-04-08T12:14:43;100392.38;;;11.50;77.41
35908;BME280;22003;50.320;8.054;2023-04-08T12:17:09;100398.34;;;10.77;80.36
35908;BME280;22003;50.320;8.054;2023-04-08T12:19:34;100400.50;;;10.97;80.72
35908;BME280;22003;50.320;8.054;2023-04-08T12:22:00;100394.56;;;10.81;79.92
35908;BME280;22003;50.320;8.054;2023-04-08T12:24:25;100395.81;;;11.14;78.63
35908;BME280;22003;50.320;8.054;2023-04-08T12:26:50;100396.88;;;11.24;77.33
35908;BME280;22003;50.320;8.054;2023-04-08T12:29:15;100393.81;;;11.17;77.90
35908;BME280;22003;50.320;8.054;2023-04-08T12:31:41;100396.03;;;10.98;78.32
35908;BME280;22003;50.320;8.054;2023-04-08T12:34:06;100396.66;;;10.76;78.45
35908;BME280;22003;50.320;8.054;2023-04-08T12:36:32;100387.88;;;10.75;78.86
35908;BME280;22003;50.320;8.054;2023-04-08T12:38:57;100386.25;;;10.60;79.26
35908;BME280;22003;50.320;8.054;2023-04-08T12:41:22;100388.63;;;10.77;79.70
35908;BME280;22003;50.320;8.054;2023-04-08T12:43:48;100389.47;;;10.78;79.88
35908;BME280;22003;50.320;8.054;2023-04-08T12:46:13;100385.44;;;10.85;79.33
35908;BME280;22003;50.320;8.054;2023-04-08T12:48:38;100380.78;;;12.00;74.17
35908;BME280;22003;50.320;8.054;2023-04-08T12:51:04;100382.63;;;12.11;74.80
35908;BME280;22003;50.320;8.054;2023-04-08T12:53:29;100380.13;;;11.23;76.49
35908;BME280;22003;50.320;8.054;2023-04-08T12:55:55;100375.78;;;12.20;75.33
35908;BME280;22003;50.320;8.054;2023-04-08T12:58:23;100374.81;;;12.56;76.19
35908;BME280;22003;50.320;8.054;2023-04-08T13:00:49;100333.69;;;11.78;73.93
35908;BME280;22003;50.320;8.054;2023-04-08T13:03:14;100383.09;;;11.19;77.13
35908;BME280;22003;50.320;8.054;2023-04-08T13:05:41;100378.22;;;10.87;78.65
35908;BME280;22003;50.320;8.054;2023-04-08T13:08:07;100360.91;;;10.43;81.70
35908;BME280;22003;50.320;8.054;2023-04-08T13:10:32;100380.38;;;10.02;80.30
35908;BME280;22003;50.320;8.054;2023-04-08T13:12:57;100393.03;;;10.12;80.60
35908;BME280;22003;50.320;8.054;2023-04-08T13:15:23;100383.06;;;10.15;81.08
35908;BME280;22003;50.320;8.054;2023-04-08T13:17:48;100394.59;;;10.41;79.40
35908;BME280;22003;50.320;8.054;2023-04-08T13:20:13;100315.69;;;10.07;79.33
35908;BME280;22003;50.320;8.054;2023-04-08T13:22:39;100388.28;;;10.69;78.18
35908;BME280;22003;50.320;8.054;2023-04-08T13:25:05;100382.47;;;11.28;77.17
35908;BME280;22003;50.320;8.054;2023-04-08T13:27:31;100370.88;;;12.02;73.85
35908;BME280;22003;50.320;8.054;2023-04-08T13:29:56;100382.53;;;11.76;77.53
35908;BME280;22003;50.320;8.054;2023-04-08T13:32:21;100366.19;;;11.69;76.60
35908;BME280;22003;50.320;8.054;2023-04-08T13:34:47;100376.34;;;11.88;75.49
35908;BME280;22003;50.320;8.054;2023-04-08T13:37:12;100343.41;;;11.54;75.31
35908;BME280;22003;50.320;8.054;2023-04-08T13:39:37;100368.84;;;11.45;76.90
35908;BME280;22003;50.320;8.054;2023-04-08T13:42:03;100377.44;;;11.36;77.22
35908;BME280;22003;50.320;8.054;2023-04-08T13:44:28;100318.06;;;12.10;75.22
35908;BME280;22003;50.320;8.054;2023-04-08T13:46:53;100303.44;;;12.05;74.38
35908;BME280;22003;50.320;8.054;2023-04-08T13:49:18;100368.06;;;11.80;74.42
35908;BME280;22003;50.320;8.054;2023-04-08T13:51:44;100383.50;;;11.75;76.52
35908;BME280;22003;50.320;8.054;2023-04-08T13:54:10;100324.53;;;11.58;74.97
35908;BME280;22003;50.320;8.054;2023-04-08T13:56:35;100366.75;;;12.68;74.47
35908;BME280;22003;50.320;8.054;2023-04-08T13:59:00;100375.81;;;12.31;73.11
35908;BME280;22003;50.320;8.054;2023-04-08T14:01:26;100383.84;;;12.42;76.48
35908;BME280;22003;50.320;8.054;2023-04-08T14:03:51;100382.34;;;12.03;76.10
35908;BME280;22003;50.320;8.054;2023-04-08T14:06:16;100392.78;;;11.44;78.54
35908;BME280;22003;50.320;8.054;2023-04-08T14:08:41;100400.44;;;11.48;81.69
35908;BME280;22003;50.320;8.054;2023-04-08T14:11:07;100393.44;;;11.47;79.85
35908;BME280;22003;50.320;8.054;2023-04-08T14:13:32;100400.72;;;10.94;79.57
35908;BME280;22003;50.320;8.054;2023-04-08T14:15:57;100352.56;;;10.88;80.65
35908;BME280;22003;50.320;8.054;2023-04-08T14:18:25;100401.00;;;10.64;80.65
35908;BME280;22003;50.320;8.054;2023-04-08T14:20:51;100400.56;;;10.57;80.96
35908;BME280;22003;50.320;8.054;2023-04-08T14:23:16;100346.38;;;10.36;82.94
35908;BME280;22003;50.320;8.054;2023-04-08T14:25:42;100386.50;;;10.70;81.46
35908;BME280;22003;50.320;8.054;2023-04-08T14:28:07;100355.53;;;10.18;81.23
35908;BME280;22003;50.320;8.054;2023-04-08T14:30:32;100391.56;;;10.60;83.08
35908;BME280;22003;50.320;8.054;2023-04-08T14:32:59;100351.31;;;10.68;82.84
35908;BME280;22003;50.320;8.054;2023-04-08T14:35:25;100390.41;;;11.02;81.84
35908;BME280;22003;50.320;8.054;2023-04-08T14:37:50;100394.13;;;11.25;81.50
35908;BME280;22003;50.320;8.054;2023-04-08T14:40:15;100349.06;;;11.00;80.79
35908;BME280;22003;50.320;8.054;2023-04-08T14:42:41;100388.53;;;10.79;82.63
35908;BME280;22003;50.320;8.054;2023-04-08T14:45:07;100322.34;;;10.39;81.75
35908;BME280;22003;50.320;8.054;2023-04-08T14:47:32;100396.00;;;10.60;83.32
35908;BME280;22003;50.320;8.054;2023-04-08T14:49:57;100392.50;;;10.46;85.49
35908;BME280;22003;50.320;8.054;2023-04-08T14:52:22;100395.69;;;10.51;86.58
35908;BME280;22003;50.320;8.054;2023-04-08T14:54:48;100387.03;;;10.62;83.84
35908;BME280;22003;50.320;8.054;2023-04-08T14:57:14;100357.25;;;10.84;83.09
35908;BME280;22003;50.320;8.054;2023-04-08T14:59:40;100387.94;;;11.37;81.44
35908;BME280;22003;50.320;8.054;2023-04-08T15:02:06;100337.03;;;11.20;81.64
35908;BME280;22003;50.320;8.054;2023-04-08T15:04:31;100392.38;;;11.50;82.16
35908;BME280;22003;50.320;8.054;2023-04-08T15:06:56;100395.03;;;11.37;83.70
35908;BME280;22003;50.320;8.054;2023-04-08T15:09:21;100365.84;;;11.50;82.60
35908;BME280;22003;50.320;8.054;2023-04-08T15:11:47;100393.34;;;11.36;82.31
35908;BME280;22003;50.320;8.054;2023-04-08T15:14:12;100394.66;;;12.04;82.19
35908;BME280;22003;50.320;8.054;2023-04-08T15:16:37;100382.56;;;12.24;80.62
35908;BME280;22003;50.320;8.054;2023-04-08T15:19:02;100379.53;;;11.80;79.20
35908;BME280;22003;50.320;8.054;2023-04-08T15:21:29;100381.59;;;11.27;80.42
35908;BME280;22003;50.320;8.054;2023-04-08T15:23:55;100386.22;;;12.10;78.83
35908;BME280;22003;50.320;8.054;2023-04-08T15:26:20;100384.75;;;11.45;79.70
35908;BME280;22003;50.320;8.054;2023-04-08T15:28:45;100387.72;;;11.41;81.42
35908;BME280;22003;50.320;8.054;2023-04-08T15:31:11;100376.09;;;11.54;79.62
35908;BME280;22003;50.320;8.054;2023-04-08T15:33:36;100372.03;;;12.11;77.93
35908;BME280;22003;50.320;8.054;2023-04-08T15:36:07;100370.00;;;12.61;75.53
35908;BME280;22003;50.320;8.054;2023-04-08T15:38:32;100374.31;;;12.15;77.25
35908;BME280;22003;50.320;8.054;2023-04-08T15:40:58;100338.00;;;12.16;77.17
35908;BME280;22003;50.320;8.054;2023-04-08T15:43:23;100368.81;;;12.30;76.48
35908;BME280;22003;50.320;8.054;2023-04-08T15:45:48;100380.38;;;12.18;78.78
35908;BME280;22003;50.320;8.054;2023-04-08T15:48:14;100388.94;;;12.21;80.60
35908;BME280;22003;50.320;8.054;2023-04-08T15:50:39;100277.13;;;11.17;79.20
35908;BME280;22003;50.320;8.054;2023-04-08T15:53:06;100390.53;;;11.14;80.72
35908;BME280;22003;50.320;8.054;2023-04-08T15:55:36;100387.56;;;11.05;80.83
35908;BME280;22003;50.320;8.054;2023-04-08T15:58:02;100387.38;;;10.83;81.30
35908;BME280;22003;50.320;8.054;2023-04-08T16:00:27;100402.19;;;10.73;83.32
35908;BME280;22003;50.320;8.054;2023-04-08T16:02:53;100397.50;;;10.76;83.52
35908;BME280;22003;50.320;8.054;2023-04-08T16:05:18;100385.88;;;10.79;83.39
35908;BME280;22003;50.320;8.054;2023-04-08T16:07:43;100354.78;;;10.94;83.54
35908;BME280;22003;50.320;8.054;2023-04-08T16:10:09;100406.53;;;11.25;83.31
35908;BME280;22003;50.320;8.054;2023-04-08T16:12:34;100404.31;;;11.19;82.67
35908;BME280;22003;50.320;8.054;2023-04-08T16:15:00;100408.50;;;11.47;82.58
35908;BME280;22003;50.320;8.054;2023-04-08T16:17:25;100407.91;;;11.18;83.17
35908;BME280;22003;50.320;8.054;2023-04-08T16:19:52;100402.94;;;11.13;82.84
35908;BME280;22003;50.320;8.054;2023-04-08T16:22:17;100415.25;;;10.89;83.42
35908;BME280;22003;50.320;8.054;2023-04-08T16:24:43;100411.63;;;10.90;83.04
35908;BME280;22003;50.320;8.054;2023-04-08T16:27:08;100416.75;;;11.05;82.18
35908;BME280;22003;50.320;8.054;2023-04-08T16:29:34;100414.50;;;11.12;81.44
35908;BME280;22003;50.320;8.054;2023-04-08T16:31:59;100416.81;;;10.78;83.62
35908;BME280;22003;50.320;8.054;2023-04-08T16:34:25;100426.78;;;10.88;84.74
35908;BME280;22003;50.320;8.054;2023-04-08T16:36:52;100426.06;;;10.86;84.29
35908;BME280;22003;50.320;8.054;2023-04-08T16:39:17;100374.06;;;10.57;84.03
35908;BME280;22003;50.320;8.054;2023-04-08T16:41:42;100416.88;;;10.51;84.48
35908;BME280;22003;50.320;8.054;2023-04-08T16:44:08;100434.34;;;10.41;86.08
35908;BME280;22003;50.320;8.054;2023-04-08T16:46:34;100429.03;;;10.41;85.85
35908;BME280;22003;50.320;8.054;2023-04-08T16:49:00;100425.66;;;10.39;84.10
35908;BME280;22003;50.320;8.054;2023-04-08T16:51:25;100439.09;;;10.36;85.65
35908;BME280;22003;50.320;8.054;2023-04-08T16:53:51;100440.47;;;10.29;85.38
35908;BME280;22003;50.320;8.054;2023-04-08T16:56:16;100437.66;;;10.03;87.47
35908;BME280;22003;50.320;8.054;2023-04-08T16:58:42;100434.84;;;10.07;88.86
35908;BME280;22003;50.320;8.054;2023-04-08T17:01:08;100431.25;;;10.35;87.24